sensor_id;sensor_type;location;lat;lon;timestamp;temperature;humidity
47861;HTU21D;33620;52.340;5.984;2022-07-06T00:01:19;15.76;70.48
47861;HTU21D;33620;52.340;5.984;2022-07-06T00:03:44;15.70;70.74
47861;HTU21D;33620;52.340;5.984;2022-07-06T00:06:10;15.68;71.00
47861;HTU21D;33620;52.340;5.984;2022-07-06T00:08:36;15.68;70.99
47861;HTU21D;33620;52.340;5.984;2022-07-06T00:11:01;15.67;70.84
47861;HTU21D;33620;52.340;5.984;2022-07-06T00:13:27;15.71;70.94
47861;HTU21D;33620;52.340;5.984;2022-07-06T00:15:52;15.72;70.75
47861;HTU21D;33620;52.340;5.984;2022-07-06T00:18:18;15.69;70.54
47861;HTU21D;33620;52.340;5.984;2022-07-06T00:20:43;15.67;70.75
47861;HTU21D;33620;52.340;5.984;2022-07-06T00:23:09;15.62;70.90
47861;HTU21D;33620;52.340;5.984;2022-07-06T00:25:35;15.59;71.02
47861;HTU21D;33620;52.340;5.984;2022-07-06T00:28:00;15.55;71.13
47861;HTU21D;33620;52.340;5.984;2022-07-06T00:30:25;15.53;71.19
47861;HTU21D;33620;52.340;5.984;2022-07-06T00:32:51;15.44;71.32
47861;HTU21D;33620;52.340;5.984;2022-07-06T00:35:16;15.40;72.10
47861;HTU21D;33620;52.340;5.984;2022-07-06T00:37:41;15.33;71.76
47861;HTU21D;33620;52.340;5.984;2022-07-06T00:40:07;15.30;72.41
47861;HTU21D;33620;52.340;5.984;2022-07-06T00:42:43;15.39;72.13
47861;HTU21D;33620;52.340;5.984;2022-07-06T00:45:10;15.45;71.80
47861;HTU21D;33620;52.340;5.984;2022-07-06T00:47:36;15.51;71.61
47861;HTU21D;33620;52.340;5.984;2022-07-06T00:50:03;15.54;71.34
47861;HTU21D;33620;52.340;5.984;2022-07-06T00:52:53;15.51;71.10
47861;HTU21D;33620;52.340;5.984;2022-07-06T00:55:21;15.46;71.57
47861;HTU21D;33620;52.340;5.984;2022-07-06T00:57:47;15.42;71.35
47861;HTU21D;33620;52.340;5.984;2022-07-06T01:00:14;15.42;71.64
47861;HTU21D;33620;52.340;5.984;2022-07-06T01:02:40;15.41;71.62
47861;HTU21D;33620;52.340;5.984;2022-07-06T01:05:07;15.39;71.73
47861;HTU21D;33620;52.340;5.984;2022-07-06T01:07:33;15.39;71.79
47861;HTU21D;33620;52.340;5.984;2022-07-06T01:09:58;15.43;71.63
47861;HTU21D;33620;52.340;5.984;2022-07-06T01:12:24;15.43;71.55
47861;HTU21D;33620;52.340;5.984;2022-07-06T01:14:50;15.44;71.52
47861;HTU21D;33620;52.340;5.984;2022-07-06T01:17:17;15.42;71.71
47861;HTU21D;33620;52.340;5.984;2022-07-06T01:19:43;15.43;71.67
47861;HTU21D;33620;52.340;5.984;2022-07-06T01:22:09;15.41;71.40
47861;HTU21D;33620;52.340;5.984;2022-07-06T01:24:35;15.36;71.64
47861;HTU21D;33620;52.340;5.984;2022-07-06T01:27:01;15.32;71.63
47861;HTU21D;33620;52.340;5.984;2022-07-06T01:29:26;15.29;71.80
47861;HTU21D;33620;52.340;5.984;2022-07-06T01:31:52;15.26;71.57
47861;HTU21D;33620;52.340;5.984;2022-07-06T01:34:18;15.19;71.99
47861;HTU21D;33620;52.340;5.984;2022-07-06T01:36:43;15.13;72.11
47861;HTU21D;33620;52.340;5.984;2022-07-06T01:39:09;15.11;72.18
47861;HTU21D;33620;52.340;5.984;2022-07-06T01:41:35;15.03;72.30
47861;HTU21D;33620;52.340;5.984;2022-07-06T01:44:01;14.99;72.54
47861;HTU21D;33620;52.340;5.984;2022-07-06T01:46:26;14.93;72.62
47861;HTU21D;33620;52.340;5.984;2022-07-06T01:48:52;14.87;72.77
47861;HTU21D;33620;52.340;5.984;2022-07-06T01:51:17;14.81;73.14
47861;HTU21D;33620;52.340;5.984;2022-07-06T01:53:43;14.77;73.13
47861;HTU21D;33620;52.340;5.984;2022-07-06T01:56:09;14.75;73.27
47861;HTU21D;33620;52.340;5.984;2022-07-06T01:58:35;14.78;73.24
47861;HTU21D;33620;52.340;5.984;2022-07-06T02:01:01;14.77;73.43
47861;HTU21D;33620;52.340;5.984;2022-07-06T02:03:31;14.79;73.39
47861;HTU21D;33620;52.340;5.984;2022-07-06T02:05:56;14.85;73.14
47861;HTU21D;33620;52.340;5.984;2022-07-06T02:08:22;14.86;72.84
47861;HTU21D;33620;52.340;5.984;2022-07-06T02:10:47;14.81;72.96
47861;HTU21D;33620;52.340;5.984;2022-07-06T02:13:12;14.79;73.11
47861;HTU21D;33620;52.340;5.984;2022-07-06T02:15:38;14.78;73.28
47861;HTU21D;33620;52.340;5.984;2022-07-06T02:18:03;14.78;73.21
47861;HTU21D;33620;52.340;5.984;2022-07-06T02:20:29;14.80;73.19
47861;HTU21D;33620;52.340;5.984;2022-07-06T02:22:54;14.78;73.11
47861;HTU21D;33620;52.340;5.984;2022-07-06T02:25:19;14.69;73.10
47861;HTU21D;33620;52.340;5.984;2022-07-06T02:27:45;14.67;73.50
47861;HTU21D;33620;52.340;5.984;2022-07-06T02:30:10;14.58;73.44
47861;HTU21D;33620;52.340;5.984;2022-07-06T02:32:36;14.43;74.25
47861;HTU21D;33620;52.340;5.984;2022-07-06T02:35:01;14.44;74.22
47861;HTU21D;33620;52.340;5.984;2022-07-06T02:37:26;14.41;74.27
47861;HTU21D;33620;52.340;5.984;2022-07-06T02:39:52;14.37;74.21
47861;HTU21D;33620;52.340;5.984;2022-07-06T02:42:17;14.36;74.44
47861;HTU21D;33620;52.340;5.984;2022-07-06T02:44:42;14.37;74.27
47861;HTU21D;33620;52.340;5.984;2022-07-06T02:47:08;14.38;74.30
47861;HTU21D;33620;52.340;5.984;2022-07-06T02:49:33;14.35;74.44
47861;HTU21D;33620;52.340;5.984;2022-07-06T02:51:59;14.37;74.31
47861;HTU21D;33620;52.340;5.984;2022-07-06T02:54:24;14.41;74.18
47861;HTU21D;33620;52.340;5.984;2022-07-06T02:56:49;14.47;73.62
47861;HTU21D;33620;52.340;5.984;2022-07-06T02:59:18;14.39;74.22
47861;HTU21D;33620;52.340;5.984;2022-07-06T03:01:44;14.38;73.86
47861;HTU21D;33620;52.340;5.984;2022-07-06T03:04:09;14.29;74.26
47861;HTU21D;33620;52.340;5.984;2022-07-06T03:06:34;14.24;74.44
47861;HTU21D;33620;52.340;5.984;2022-07-06T03:09:00;14.18;74.42
47861;HTU21D;33620;52.340;5.984;2022-07-06T03:11:25;14.11;75.08
47861;HTU21D;33620;52.340;5.984;2022-07-06T03:13:51;14.15;75.28
47861;HTU21D;33620;52.340;5.984;2022-07-06T03:16:16;14.20;74.90
47861;HTU21D;33620;52.340;5.984;2022-07-06T03:18:42;14.14;75.15
47861;HTU21D;33620;52.340;5.984;2022-07-06T03:21:07;14.17;74.91
47861;HTU21D;33620;52.340;5.984;2022-07-06T03:23:33;14.09;75.44
47861;HTU21D;33620;52.340;5.984;2022-07-06T03:25:58;14.06;75.68
47861;HTU21D;33620;52.340;5.984;2022-07-06T03:28:23;14.04;75.96
47861;HTU21D;33620;52.340;5.984;2022-07-06T03:30:49;14.04;76.28
47861;HTU21D;33620;52.340;5.984;2022-07-06T03:33:14;14.10;76.18
47861;HTU21D;33620;52.340;5.984;2022-07-06T03:35:40;14.19;75.87
47861;HTU21D;33620;52.340;5.984;2022-07-06T03:38:05;14.20;75.57
47861;HTU21D;33620;52.340;5.984;2022-07-06T03:40:30;14.20;76.00
47861;HTU21D;33620;52.340;5.984;2022-07-06T03:42:56;14.28;75.92
47861;HTU21D;33620;52.340;5.984;2022-07-06T03:45:21;14.37;75.70
47861;HTU21D;33620;52.340;5.984;2022-07-06T03:47:46;14.40;75.15
47861;HTU21D;33620;52.340;5.984;2022-07-06T03:50:12;14.32;75.71
47861;HTU21D;33620;52.340;5.984;2022-07-06T03:52:37;14.32;76.07
47861;HTU21D;33620;52.340;5.984;2022-07-06T03:55:09;14.33;76.05
47861;HTU21D;33620;52.340;5.984;2022-07-06T03:57:36;14.40;76.21
47861;HTU21D;33620;52.340;5.984;2022-07-06T04:00:21;14.36;76.08
47861;HTU21D;33620;52.340;5.984;2022-07-06T04:02:47;14.36;76.07
47861;HTU21D;33620;52.340;5.984;2022-07-06T04:05:12;14.30;76.81
47861;HTU21D;33620;52.340;5.984;2022-07-06T04:07:38;14.38;76.47
47861;HTU21D;33620;52.340;5.984;2022-07-06T04:10:03;14.42;76.67
47861;HTU21D;33620;52.340;5.984;2022-07-06T04:12:28;14.51;76.49
47861;HTU21D;33620;52.340;5.984;2022-07-06T04:14:56;14.59;75.95
47861;HTU21D;33620;52.340;5.984;2022-07-06T04:17:22;14.65;76.03
47861;HTU21D;33620;52.340;5.984;2022-07-06T04:20:07;14.72;75.70
47861;HTU21D;33620;52.340;5.984;2022-07-06T04:22:32;14.77;75.09
47861;HTU21D;33620;52.340;5.984;2022-07-06T04:24:57;14.74;75.46
47861;HTU21D;33620;52.340;5.984;2022-07-06T04:27:23;14.69;75.46
47861;HTU21D;33620;52.340;5.984;2022-07-06T04:29:48;14.68;75.79
47861;HTU21D;33620;52.340;5.984;2022-07-06T04:32:13;14.71;75.35
47861;HTU21D;33620;52.340;5.984;2022-07-06T04:34:39;14.62;75.47
47861;HTU21D;33620;52.340;5.984;2022-07-06T04:37:04;14.60;75.93
47861;HTU21D;33620;52.340;5.984;2022-07-06T04:39:29;14.67;75.69
47861;HTU21D;33620;52.340;5.984;2022-07-06T04:41:57;14.72;75.29
47861;HTU21D;33620;52.340;5.984;2022-07-06T04:44:22;14.78;75.13
47861;HTU21D;33620;52.340;5.984;2022-07-06T04:46:47;14.80;75.09
47861;HTU21D;33620;52.340;5.984;2022-07-06T04:49:13;14.82;74.85
47861;HTU21D;33620;52.340;5.984;2022-07-06T04:51:38;14.84;74.76
47861;HTU21D;33620;52.340;5.984;2022-07-06T04:54:04;14.88;74.77
47861;HTU21D;33620;52.340;5.984;2022-07-06T04:56:30;14.85;74.55
47861;HTU21D;33620;52.340;5.984;2022-07-06T04:58:56;14.85;74.77
47861;HTU21D;33620;52.340;5.984;2022-07-06T05:01:21;14.83;74.39
47861;HTU21D;33620;52.340;5.984;2022-07-06T05:03:46;14.79;75.06
47861;HTU21D;33620;52.340;5.984;2022-07-06T05:06:12;14.83;75.24
47861;HTU21D;33620;52.340;5.984;2022-07-06T05:08:37;14.83;74.80
47861;HTU21D;33620;52.340;5.984;2022-07-06T05:11:03;14.81;75.38
47861;HTU21D;33620;52.340;5.984;2022-07-06T05:13:29;14.89;75.31
47861;HTU21D;33620;52.340;5.984;2022-07-06T05:15:54;14.98;75.00
47861;HTU21D;33620;52.340;5.984;2022-07-06T05:18:19;15.01;74.64
47861;HTU21D;33620;52.340;5.984;2022-07-06T05:20:45;15.00;74.83
47861;HTU21D;33620;52.340;5.984;2022-07-06T05:23:10;15.11;74.41
47861;HTU21D;33620;52.340;5.984;2022-07-06T05:25:35;15.14;74.31
47861;HTU21D;33620;52.340;5.984;2022-07-06T05:28:02;15.19;74.54
47861;HTU21D;33620;52.340;5.984;2022-07-06T05:30:27;15.28;74.24
47861;HTU21D;33620;52.340;5.984;2022-07-06T05:32:53;15.30;73.97
47861;HTU21D;33620;52.340;5.984;2022-07-06T05:35:18;15.31;74.08
47861;HTU21D;33620;52.340;5.984;2022-07-06T05:37:44;15.36;73.82
47861;HTU21D;33620;52.340;5.984;2022-07-06T05:40:10;15.37;74.24
47861;HTU21D;33620;52.340;5.984;2022-07-06T05:42:35;15.42;74.17
47861;HTU21D;33620;52.340;5.984;2022-07-06T05:45:01;15.39;73.67
47861;HTU21D;33620;52.340;5.984;2022-07-06T05:47:28;15.40;74.12
47861;HTU21D;33620;52.340;5.984;2022-07-06T05:50:12;15.42;74.20
47861;HTU21D;33620;52.340;5.984;2022-07-06T05:52:56;15.45;74.18
47861;HTU21D;33620;52.340;5.984;2022-07-06T05:55:22;15.53;73.94
47861;HTU21D;33620;52.340;5.984;2022-07-06T05:57:47;15.57;73.93
47861;HTU21D;33620;52.340;5.984;2022-07-06T06:00:12;15.62;73.90
47861;HTU21D;33620;52.340;5.984;2022-07-06T06:02:39;15.67;73.44
47861;HTU21D;33620;52.340;5.984;2022-07-06T06:05:06;15.73;73.66
47861;HTU21D;33620;52.340;5.984;2022-07-06T06:07:33;15.80;73.24
47861;HTU21D;33620;52.340;5.984;2022-07-06T06:09:59;15.84;73.43
47861;HTU21D;33620;52.340;5.984;2022-07-06T06:12:25;15.92;73.27
47861;HTU21D;33620;52.340;5.984;2022-07-06T06:14:50;15.97;72.63
47861;HTU21D;33620;52.340;5.984;2022-07-06T06:17:15;15.99;72.46
47861;HTU21D;33620;52.340;5.984;2022-07-06T06:19:41;16.03;72.71
47861;HTU21D;33620;52.340;5.984;2022-07-06T06:22:06;16.04;72.36
47861;HTU21D;33620;52.340;5.984;2022-07-06T06:24:32;16.10;72.32
47861;HTU21D;33620;52.340;5.984;2022-07-06T06:26:57;16.11;71.90
47861;HTU21D;33620;52.340;5.984;2022-07-06T06:29:24;16.08;71.88
47861;HTU21D;33620;52.340;5.984;2022-07-06T06:31:49;16.10;72.16
47861;HTU21D;33620;52.340;5.984;2022-07-06T06:34:15;16.17;72.03
47861;HTU21D;33620;52.340;5.984;2022-07-06T06:36:40;16.19;71.28
47861;HTU21D;33620;52.340;5.984;2022-07-06T06:39:05;16.16;71.29
47861;HTU21D;33620;52.340;5.984;2022-07-06T06:41:31;16.14;70.61
47861;HTU21D;33620;52.340;5.984;2022-07-06T06:43:56;16.11;70.50
47861;HTU21D;33620;52.340;5.984;2022-07-06T06:46:22;16.11;71.05
47861;HTU21D;33620;52.340;5.984;2022-07-06T06:48:47;16.16;70.93
47861;HTU21D;33620;52.340;5.984;2022-07-06T06:51:12;16.21;70.45
47861;HTU21D;33620;52.340;5.984;2022-07-06T06:53:38;16.24;70.19
47861;HTU21D;33620;52.340;5.984;2022-07-06T06:56:03;16.26;69.96
47861;HTU21D;33620;52.340;5.984;2022-07-06T06:58:29;16.31;70.08
47861;HTU21D;33620;52.340;5.984;2022-07-06T07:00:55;16.37;69.86
47861;HTU21D;33620;52.340;5.984;2022-07-06T07:03:20;16.41;68.74
47861;HTU21D;33620;52.340;5.984;2022-07-06T07:05:46;16.42;68.23
47861;HTU21D;33620;52.340;5.984;2022-07-06T07:08:11;16.45;68.50
47861;HTU21D;33620;52.340;5.984;2022-07-06T07:10:37;16.49;67.90
47861;HTU21D;33620;52.340;5.984;2022-07-06T07:13:02;16.49;67.51
47861;HTU21D;33620;52.340;5.984;2022-07-06T07:15:28;16.51;66.78
47861;HTU21D;33620;52.340;5.984;2022-07-06T07:17:53;16.52;66.72
47861;HTU21D;33620;52.340;5.984;2022-07-06T07:20:19;16.55;65.72
47861;HTU21D;33620;52.340;5.984;2022-07-06T07:22:44;16.59;65.53
47861;HTU21D;33620;52.340;5.984;2022-07-06T07:25:10;16.61;65.17
47861;HTU21D;33620;52.340;5.984;2022-07-06T07:27:35;16.65;64.34
47861;HTU21D;33620;52.340;5.984;2022-07-06T07:30:01;16.71;65.23
47861;HTU21D;33620;52.340;5.984;2022-07-06T07:32:26;16.76;64.18
47861;HTU21D;33620;52.340;5.984;2022-07-06T07:34:52;16.82;63.52
47861;HTU21D;33620;52.340;5.984;2022-07-06T07:37:17;16.92;62.99
47861;HTU21D;33620;52.340;5.984;2022-07-06T07:39:42;17.01;62.13
47861;HTU21D;33620;52.340;5.984;2022-07-06T07:42:08;17.01;60.47
47861;HTU21D;33620;52.340;5.984;2022-07-06T07:44:33;17.08;61.19
47861;HTU21D;33620;52.340;5.984;2022-07-06T07:46:59;17.10;61.38
47861;HTU21D;33620;52.340;5.984;2022-07-06T07:49:24;17.13;61.25
47861;HTU21D;33620;52.340;5.984;2022-07-06T07:51:49;17.11;60.98
47861;HTU21D;33620;52.340;5.984;2022-07-06T07:54:15;17.13;60.29
47861;HTU21D;33620;52.340;5.984;2022-07-06T07:56:40;17.13;60.57
47861;HTU21D;33620;52.340;5.984;2022-07-06T07:59:06;17.15;59.90
47861;HTU21D;33620;52.340;5.984;2022-07-06T08:01:32;17.16;58.54
47861;HTU21D;33620;52.340;5.984;2022-07-06T08:03:58;17.17;55.94
47861;HTU21D;33620;52.340;5.984;2022-07-06T08:06:23;17.13;57.19
47861;HTU21D;33620;52.340;5.984;2022-07-06T08:08:49;17.15;57.78
47861;HTU21D;33620;52.340;5.984;2022-07-06T08:11:14;17.21;57.90
47861;HTU21D;33620;52.340;5.984;2022-07-06T08:13:40;17.22;57.39
47861;HTU21D;33620;52.340;5.984;2022-07-06T08:16:05;17.28;57.23
47861;HTU21D;33620;52.340;5.984;2022-07-06T08:18:31;17.35;57.81
47861;HTU21D;33620;52.340;5.984;2022-07-06T08:20:56;17.52;58.25
47861;HTU21D;33620;52.340;5.984;2022-07-06T08:23:22;17.70;58.52
47861;HTU21D;33620;52.340;5.984;2022-07-06T08:25:47;17.83;56.59
47861;HTU21D;33620;52.340;5.984;2022-07-06T08:28:13;17.95;54.78
47861;HTU21D;33620;52.340;5.984;2022-07-06T08:30:38;18.10;54.55
47861;HTU21D;33620;52.340;5.984;2022-07-06T08:33:04;18.30;53.60
47861;HTU21D;33620;52.340;5.984;2022-07-06T08:35:29;18.44;52.49
47861;HTU21D;33620;52.340;5.984;2022-07-06T08:37:54;18.64;52.68
47861;HTU21D;33620;52.340;5.984;2022-07-06T08:40:20;18.68;53.00
47861;HTU21D;33620;52.340;5.984;2022-07-06T08:42:47;18.57;52.40
47861;HTU21D;33620;52.340;5.984;2022-07-06T08:45:13;18.74;53.17
47861;HTU21D;33620;52.340;5.984;2022-07-06T08:47:41;18.98;52.82
47861;HTU21D;33620;52.340;5.984;2022-07-06T08:50:07;18.94;52.30
47861;HTU21D;33620;52.340;5.984;2022-07-06T08:52:35;18.97;51.01
47861;HTU21D;33620;52.340;5.984;2022-07-06T08:55:02;18.87;51.91
47861;HTU21D;33620;52.340;5.984;2022-07-06T08:57:28;18.77;51.98
47861;HTU21D;33620;52.340;5.984;2022-07-06T08:59:54;19.08;52.43
47861;HTU21D;33620;52.340;5.984;2022-07-06T09:02:19;19.36;51.71
47861;HTU21D;33620;52.340;5.984;2022-07-06T09:04:50;19.52;50.14
47861;HTU21D;33620;52.340;5.984;2022-07-06T09:07:17;19.45;51.43
47861;HTU21D;33620;52.340;5.984;2022-07-06T09:09:42;19.39;49.84
47861;HTU21D;33620;52.340;5.984;2022-07-06T09:12:13;19.22;49.40
47861;HTU21D;33620;52.340;5.984;2022-07-06T09:14:38;19.20;49.66
47861;HTU21D;33620;52.340;5.984;2022-07-06T09:17:05;19.16;50.85
47861;HTU21D;33620;52.340;5.984;2022-07-06T09:19:33;19.10;50.02
47861;HTU21D;33620;52.340;5.984;2022-07-06T09:21:59;19.09;50.34
47861;HTU21D;33620;52.340;5.984;2022-07-06T09:24:25;19.00;50.52
47861;HTU21D;33620;52.340;5.984;2022-07-06T09:26:54;19.12;52.16
47861;HTU21D;33620;52.340;5.984;2022-07-06T09:29:29;19.10;52.20
47861;HTU21D;33620;52.340;5.984;2022-07-06T09:31:59;19.14;51.47
47861;HTU21D;33620;52.340;5.984;2022-07-06T09:34:25;19.07;52.29
47861;HTU21D;33620;52.340;5.984;2022-07-06T09:37:05;18.95;51.44
47861;HTU21D;33620;52.340;5.984;2022-07-06T09:39:31;18.96;52.53
47861;HTU21D;33620;52.340;5.984;2022-07-06T09:42:01;19.13;52.82
47861;HTU21D;33620;52.340;5.984;2022-07-06T09:44:33;19.30;52.58
47861;HTU21D;33620;52.340;5.984;2022-07-06T09:47:01;19.30;51.79
47861;HTU21D;33620;52.340;5.984;2022-07-06T09:49:27;19.37;51.45
47861;HTU21D;33620;52.340;5.984;2022-07-06T09:51:55;19.38;48.80
47861;HTU21D;33620;52.340;5.984;2022-07-06T09:54:20;19.39;49.88
47861;HTU21D;33620;52.340;5.984;2022-07-06T09:56:47;19.54;50.34
47861;HTU21D;33620;52.340;5.984;2022-07-06T09:59:16;19.67;50.18
47861;HTU21D;33620;52.340;5.984;2022-07-06T10:01:42;19.69;51.62
47861;HTU21D;33620;52.340;5.984;2022-07-06T10:04:09;19.70;50.30
47861;HTU21D;33620;52.340;5.984;2022-07-06T10:06:35;19.77;49.60
47861;HTU21D;33620;52.340;5.984;2022-07-06T10:09:04;19.80;49.76
47861;HTU21D;33620;52.340;5.984;2022-07-06T10:11:34;19.82;47.81
47861;HTU21D;33620;52.340;5.984;2022-07-06T10:14:01;19.86;48.37
47861;HTU21D;33620;52.340;5.984;2022-07-06T10:16:28;19.97;48.31
47861;HTU21D;33620;52.340;5.984;2022-07-06T10:18:54;20.07;48.89
47861;HTU21D;33620;52.340;5.984;2022-07-06T10:21:21;20.18;49.69
47861;HTU21D;33620;52.340;5.984;2022-07-06T10:23:48;20.12;48.95
47861;HTU21D;33620;52.340;5.984;2022-07-06T10:26:15;20.09;49.73
47861;HTU21D;33620;52.340;5.984;2022-07-06T10:28:41;20.10;50.30
47861;HTU21D;33620;52.340;5.984;2022-07-06T10:31:08;20.04;49.84
47861;HTU21D;33620;52.340;5.984;2022-07-06T10:33:34;20.09;50.24
47861;HTU21D;33620;52.340;5.984;2022-07-06T10:36:00;20.01;48.62
47861;HTU21D;33620;52.340;5.984;2022-07-06T10:38:33;20.14;49.76
47861;HTU21D;33620;52.340;5.984;2022-07-06T10:41:06;20.24;48.70
47861;HTU21D;33620;52.340;5.984;2022-07-06T10:43:36;20.27;48.55
47861;HTU21D;33620;52.340;5.984;2022-07-06T10:46:06;20.26;49.00
47861;HTU21D;33620;52.340;5.984;2022-07-06T10:48:36;20.12;49.44
47861;HTU21D;33620;52.340;5.984;2022-07-06T10:51:02;20.11;50.11
47861;HTU21D;33620;52.340;5.984;2022-07-06T10:53:40;20.01;49.11
47861;HTU21D;33620;52.340;5.984;2022-07-06T10:56:07;19.97;50.34
47861;HTU21D;33620;52.340;5.984;2022-07-06T10:58:50;20.10;50.11
47861;HTU21D;33620;52.340;5.984;2022-07-06T11:01:20;20.28;50.43
47861;HTU21D;33620;52.340;5.984;2022-07-06T11:06:24;20.48;49.33
47861;HTU21D;33620;52.340;5.984;2022-07-06T11:08:57;20.69;47.88
47861;HTU21D;33620;52.340;5.984;2022-07-06T11:16:28;21.10;45.67
47861;HTU21D;33620;52.340;5.984;2022-07-06T11:21:38;21.48;46.19
47861;HTU21D;33620;52.340;5.984;2022-07-06T11:24:08;21.61;43.82
47861;HTU21D;33620;52.340;5.984;2022-07-06T11:26:35;21.39;45.31
47861;HTU21D;33620;52.340;5.984;2022-07-06T11:29:03;21.33;44.26
47861;HTU21D;33620;52.340;5.984;2022-07-06T11:31:29;21.46;44.93
47861;HTU21D;33620;52.340;5.984;2022-07-06T11:33:54;21.62;44.99
47861;HTU21D;33620;52.340;5.984;2022-07-06T11:36:21;21.59;45.89
47861;HTU21D;33620;52.340;5.984;2022-07-06T11:38:49;21.33;46.60
47861;HTU21D;33620;52.340;5.984;2022-07-06T11:41:16;21.10;46.28
47861;HTU21D;33620;52.340;5.984;2022-07-06T11:43:43;21.18;46.71
47861;HTU21D;33620;52.340;5.984;2022-07-06T11:46:32;21.34;46.15
47861;HTU21D;33620;52.340;5.984;2022-07-06T11:49:08;21.61;45.74
47861;HTU21D;33620;52.340;5.984;2022-07-06T11:51:36;21.82;46.09
47861;HTU21D;33620;52.340;5.984;2022-07-06T11:54:09;21.97;43.23
47861;HTU21D;33620;52.340;5.984;2022-07-06T11:56:35;21.98;42.48
47861;HTU21D;33620;52.340;5.984;2022-07-06T11:59:01;22.08;43.31
47861;HTU21D;33620;52.340;5.984;2022-07-06T12:01:28;22.12;42.40
47861;HTU21D;33620;52.340;5.984;2022-07-06T12:04:00;22.09;43.80
47861;HTU21D;33620;52.340;5.984;2022-07-06T12:06:27;22.25;43.94
47861;HTU21D;33620;52.340;5.984;2022-07-06T12:08:58;22.29;40.89
47861;HTU21D;33620;52.340;5.984;2022-07-06T12:11:24;22.34;41.79
47861;HTU21D;33620;52.340;5.984;2022-07-06T12:13:52;22.32;42.07
47861;HTU21D;33620;52.340;5.984;2022-07-06T12:16:18;22.40;41.20
47861;HTU21D;33620;52.340;5.984;2022-07-06T12:18:45;22.51;41.09
47861;HTU21D;33620;52.340;5.984;2022-07-06T12:21:15;22.55;41.40
47861;HTU21D;33620;52.340;5.984;2022-07-06T12:23:46;22.70;41.13
47861;HTU21D;33620;52.340;5.984;2022-07-06T12:26:14;22.79;39.76
47861;HTU21D;33620;52.340;5.984;2022-07-06T12:28:39;22.65;40.20
47861;HTU21D;33620;52.340;5.984;2022-07-06T12:31:05;22.69;41.68
47861;HTU21D;33620;52.340;5.984;2022-07-06T12:33:31;22.84;40.47
47861;HTU21D;33620;52.340;5.984;2022-07-06T12:35:57;22.66;41.02
47861;HTU21D;33620;52.340;5.984;2022-07-06T12:38:33;22.54;41.44
47861;HTU21D;33620;52.340;5.984;2022-07-06T12:40:58;22.37;41.44
47861;HTU21D;33620;52.340;5.984;2022-07-06T12:43:37;22.40;42.66
47861;HTU21D;33620;52.340;5.984;2022-07-06T12:46:22;22.43;41.93
47861;HTU21D;33620;52.340;5.984;2022-07-06T12:48:54;22.29;41.20
47861;HTU21D;33620;52.340;5.984;2022-07-06T12:51:20;22.16;40.94
47861;HTU21D;33620;52.340;5.984;2022-07-06T12:53:46;22.19;42.24
47861;HTU21D;33620;52.340;5.984;2022-07-06T12:56:12;22.24;42.24
47861;HTU21D;33620;52.340;5.984;2022-07-06T12:58:38;22.23;42.90
47861;HTU21D;33620;52.340;5.984;2022-07-06T13:01:03;22.27;42.39
47861;HTU21D;33620;52.340;5.984;2022-07-06T13:03:40;22.21;42.67
47861;HTU21D;33620;52.340;5.984;2022-07-06T13:06:06;22.19;42.02
47861;HTU21D;33620;52.340;5.984;2022-07-06T13:08:31;22.08;42.22
47861;HTU21D;33620;52.340;5.984;2022-07-06T13:10:57;22.01;43.29
47861;HTU21D;33620;52.340;5.984;2022-07-06T13:13:22;22.09;43.55
47861;HTU21D;33620;52.340;5.984;2022-07-06T13:15:48;22.10;42.73
47861;HTU21D;33620;52.340;5.984;2022-07-06T13:18:13;22.14;43.81
47861;HTU21D;33620;52.340;5.984;2022-07-06T13:20:39;22.14;42.65
47861;HTU21D;33620;52.340;5.984;2022-07-06T13:23:04;22.18;43.02
47861;HTU21D;33620;52.340;5.984;2022-07-06T13:25:29;22.14;41.83
47861;HTU21D;33620;52.340;5.984;2022-07-06T13:27:55;22.22;42.48
47861;HTU21D;33620;52.340;5.984;2022-07-06T13:30:20;22.25;43.77
47861;HTU21D;33620;52.340;5.984;2022-07-06T13:32:46;22.28;45.25
47861;HTU21D;33620;52.340;5.984;2022-07-06T13:35:12;22.20;43.78
47861;HTU21D;33620;52.340;5.984;2022-07-06T13:37:37;22.09;43.42
47861;HTU21D;33620;52.340;5.984;2022-07-06T13:40:03;21.98;43.74
47861;HTU21D;33620;52.340;5.984;2022-07-06T13:42:28;22.02;43.78
47861;HTU21D;33620;52.340;5.984;2022-07-06T13:44:54;21.84;43.36
47861;HTU21D;33620;52.340;5.984;2022-07-06T13:47:19;21.90;43.82
47861;HTU21D;33620;52.340;5.984;2022-07-06T13:49:45;21.94;43.39
47861;HTU21D;33620;52.340;5.984;2022-07-06T13:52:12;21.99;43.93
47861;HTU21D;33620;52.340;5.984;2022-07-06T13:54:38;22.05;43.61
47861;HTU21D;33620;52.340;5.984;2022-07-06T13:57:04;22.05;43.75
47861;HTU21D;33620;52.340;5.984;2022-07-06T13:59:30;22.04;43.34
47861;HTU21D;33620;52.340;5.984;2022-07-06T14:01:55;22.08;43.13
47861;HTU21D;33620;52.340;5.984;2022-07-06T14:04:21;22.09;42.99
47861;HTU21D;33620;52.340;5.984;2022-07-06T14:06:46;21.95;43.98
47861;HTU21D;33620;52.340;5.984;2022-07-06T14:09:12;21.89;43.96
47861;HTU21D;33620;52.340;5.984;2022-07-06T14:11:37;21.90;43.90
47861;HTU21D;33620;52.340;5.984;2022-07-06T14:14:02;21.88;43.49
47861;HTU21D;33620;52.340;5.984;2022-07-06T14:16:28;21.83;43.93
47861;HTU21D;33620;52.340;5.984;2022-07-06T14:18:53;21.75;42.83
47861;HTU21D;33620;52.340;5.984;2022-07-06T14:21:19;21.67;43.46
47861;HTU21D;33620;52.340;5.984;2022-07-06T14:23:44;21.73;44.83
47861;HTU21D;33620;52.340;5.984;2022-07-06T14:26:09;21.78;44.34
47861;HTU21D;33620;52.340;5.984;2022-07-06T14:28:35;21.82;43.45
47861;HTU21D;33620;52.340;5.984;2022-07-06T14:31:00;21.90;43.61
47861;HTU21D;33620;52.340;5.984;2022-07-06T14:33:28;21.94;43.80
47861;HTU21D;33620;52.340;5.984;2022-07-06T14:35:53;21.99;43.98
47861;HTU21D;33620;52.340;5.984;2022-07-06T14:38:19;21.94;43.72
47861;HTU21D;33620;52.340;5.984;2022-07-06T14:40:46;21.95;43.23
47861;HTU21D;33620;52.340;5.984;2022-07-06T14:43:13;21.92;43.79
47861;HTU21D;33620;52.340;5.984;2022-07-06T14:45:39;21.92;43.50
47861;HTU21D;33620;52.340;5.984;2022-07-06T14:48:05;21.96;43.84
47861;HTU21D;33620;52.340;5.984;2022-07-06T14:50:31;21.94;44.15
47861;HTU21D;33620;52.340;5.984;2022-07-06T14:52:56;21.95;44.49
47861;HTU21D;33620;52.340;5.984;2022-07-06T14:55:22;21.93;43.59
47861;HTU21D;33620;52.340;5.984;2022-07-06T14:57:47;21.87;44.19
47861;HTU21D;33620;52.340;5.984;2022-07-06T15:00:13;21.88;44.99
47861;HTU21D;33620;52.340;5.984;2022-07-06T15:02:40;21.91;45.24
47861;HTU21D;33620;52.340;5.984;2022-07-06T15:05:06;21.77;44.12
47861;HTU21D;33620;52.340;5.984;2022-07-06T15:07:32;21.75;44.50
47861;HTU21D;33620;52.340;5.984;2022-07-06T15:09:57;21.69;44.49
47861;HTU21D;33620;52.340;5.984;2022-07-06T15:12:23;21.66;44.93
47861;HTU21D;33620;52.340;5.984;2022-07-06T15:14:49;21.64;44.48
47861;HTU21D;33620;52.340;5.984;2022-07-06T15:17:14;21.63;44.06
47861;HTU21D;33620;52.340;5.984;2022-07-06T15:19:42;21.58;44.51
47861;HTU21D;33620;52.340;5.984;2022-07-06T15:22:08;21.61;45.22